sensor_id;sensor_type;location;lat;lon;timestamp;P1;durP1;ratioP1;P2;durP2;ratioP2
5867;SDS011;2960;49.142;7.768;2023-01-01T00:00:36;11.80;;;4.97;;
5867;SDS011;2960;49.142;7.768;2023-01-01T00:03:05;13.13;;;4.60;;
5867;SDS011;2960;49.142;7.768;2023-01-01T00:05:32;11.07;;;4.53;;
5867;SDS011;2960;49.142;7.768;2023-01-01T00:07:59;12.20;;;4.83;;
5867;SDS011;2960;49.142;7.768;2023-01-01T00:10:26;11.97;;;4.77;;
5867;SDS011;2960;49.142;7.768;2023-01-01T00:12:53;10.90;;;4.70;;
5867;SDS011;2960;49.142;7.768;2023-01-01T00:15:21;10.93;;;4.50;;
5867;SDS011;2960;49.142;7.768;2023-01-01T00:17:48;11.60;;;4.67;;
5867;SDS011;2960;49.142;7.768;2023-01-01T00:20:17;10.63;;;4.40;;
5867;SDS011;2960;49.142;7.768;2023-01-01T00:22:45;11.17;;;4.50;;
5867;SDS011;2960;49.142;7.768;2023-01-01T00:25:12;12.90;;;4.50;;
5867;SDS011;2960;49.142;7.768;2023-01-01T00:27:39;11.83;;;4.27;;
5867;SDS011;2960;49.142;7.768;2023-01-01T00:30:07;10.87;;;4.40;;
5867;SDS011;2960;49.142;7.768;2023-01-01T00:32:36;12.83;;;5.87;;
5867;SDS011;2960;49.142;7.768;2023-01-01T00:35:04;10.90;;;4.40;;
5867;SDS011;2960;49.142;7.768;2023-01-01T00:37:34;10.93;;;4.40;;
5867;SDS011;2960;49.142;7.768;2023-01-01T00:40:01;11.23;;;4.27;;
5867;SDS011;2960;49.142;7.768;2023-01-01T00:42:28;11.13;;;4.40;;
5867;SDS011;2960;49.142;7.768;2023-01-01T00:44:55;11.40;;;4.50;;
5867;SDS011;2960;49.142;7.768;2023-01-01T00:47:22;12.07;;;4.30;;
5867;SDS011;2960;49.142;7.768;2023-01-01T00:49:49;10.60;;;4.43;;
5867;SDS011;2960;49.142;7.768;2023-01-01T00:52:17;14.63;;;4.43;;
5867;SDS011;2960;49.142;7.768;2023-01-01T00:54:45;10.90;;;4.50;;
5867;SDS011;2960;49.142;7.768;2023-01-01T00:57:12;13.60;;;4.63;;
5867;SDS011;2960;49.142;7.768;2023-01-01T00:59:39;10.80;;;4.30;;
5867;SDS011;2960;49.142;7.768;2023-01-01T01:02:06;10.50;;;4.43;;
5867;SDS011;2960;49.142;7.768;2023-01-01T01:04:33;10.73;;;4.37;;
5867;SDS011;2960;49.142;7.768;2023-01-01T01:07:01;11.30;;;4.50;;
5867;SDS011;2960;49.142;7.768;2023-01-01T01:09:28;10.63;;;4.60;;
5867;SDS011;2960;49.142;7.768;2023-01-01T01:11:57;10.77;;;4.63;;
5867;SDS011;2960;49.142;7.768;2023-01-01T01:14:24;11.00;;;4.80;;
5867;SDS011;2960;49.142;7.768;2023-01-01T01:16:51;11.60;;;4.60;;
5867;SDS011;2960;49.142;7.768;2023-01-01T01:19:18;11.23;;;4.83;;
5867;SDS011;2960;49.142;7.768;2023-01-01T01:21:48;12.60;;;4.70;;
5867;SDS011;2960;49.142;7.768;2023-01-01T01:24:16;11.73;;;4.73;;
5867;SDS011;2960;49.142;7.768;2023-01-01T01:26:44;13.33;;;4.73;;
5867;SDS011;2960;49.142;7.768;2023-01-01T01:29:12;11.00;;;4.70;;
5867;SDS011;2960;49.142;7.768;2023-01-01T01:31:39;10.30;;;4.50;;
5867;SDS011;2960;49.142;7.768;2023-01-01T01:34:06;10.70;;;4.67;;
5867;SDS011;2960;49.142;7.768;2023-01-01T01:36:33;10.77;;;4.50;;
5867;SDS011;2960;49.142;7.768;2023-01-01T01:39:03;11.00;;;4.67;;
5867;SDS011;2960;49.142;7.768;2023-01-01T01:41:30;10.50;;;4.53;;
5867;SDS011;2960;49.142;7.768;2023-01-01T01:43:58;12.03;;;4.60;;
5867;SDS011;2960;49.142;7.768;2023-01-01T01:46:29;10.80;;;5.03;;
5867;SDS011;2960;49.142;7.768;2023-01-01T01:48:59;10.23;;;4.40;;
5867;SDS011;2960;49.142;7.768;2023-01-01T01:51:31;10.97;;;4.90;;
5867;SDS011;2960;49.142;7.768;2023-01-01T01:54:02;10.93;;;4.70;;
5867;SDS011;2960;49.142;7.768;2023-01-01T01:56:36;10.60;;;4.67;;
5867;SDS011;2960;49.142;7.768;2023-01-01T01:59:10;11.40;;;4.77;;
5867;SDS011;2960;49.142;7.768;2023-01-01T02:01:40;11.90;;;4.97;;
5867;SDS011;2960;49.142;7.768;2023-01-01T02:04:07;11.40;;;4.93;;
5867;SDS011;2960;49.142;7.768;2023-01-01T02:06:34;11.80;;;4.53;;
5867;SDS011;2960;49.142;7.768;2023-01-01T02:09:04;11.80;;;5.10;;
5867;SDS011;2960;49.142;7.768;2023-01-01T02:11:33;10.40;;;4.70;;
5867;SDS011;2960;49.142;7.768;2023-01-01T02:14:00;10.80;;;4.83;;
5867;SDS011;2960;49.142;7.768;2023-01-01T02:16:32;10.80;;;4.90;;
5867;SDS011;2960;49.142;7.768;2023-01-01T02:19:09;10.50;;;4.63;;
5867;SDS011;2960;49.142;7.768;2023-01-01T02:21:48;10.67;;;4.50;;
5867;SDS011;2960;49.142;7.768;2023-01-01T02:24:35;11.60;;;4.87;;
5867;SDS011;2960;49.142;7.768;2023-01-01T02:27:16;11.10;;;4.60;;
5867;SDS011;2960;49.142;7.768;2023-01-01T02:29:55;11.00;;;4.53;;
5867;SDS011;2960;49.142;7.768;2023-01-01T02:32:28;10.50;;;4.50;;
5867;SDS011;2960;49.142;7.768;2023-01-01T02:35:02;10.80;;;4.40;;
5867;SDS011;2960;49.142;7.768;2023-01-01T02:37:49;12.00;;;4.83;;
5867;SDS011;2960;49.142;7.768;2023-01-01T02:40:20;10.50;;;4.53;;
5867;SDS011;2960;49.142;7.768;2023-01-01T02:42:49;10.43;;;4.17;;
5867;SDS011;2960;49.142;7.768;2023-01-01T02:45:20;12.33;;;4.63;;
5867;SDS011;2960;49.142;7.768;2023-01-01T02:47:47;11.30;;;4.60;;
5867;SDS011;2960;49.142;7.768;2023-01-01T02:50:15;10.67;;;4.50;;
5867;SDS011;2960;49.142;7.768;2023-01-01T02:52:59;10.40;;;4.30;;
5867;SDS011;2960;49.142;7.768;2023-01-01T02:55:47;11.57;;;4.50;;
5867;SDS011;2960;49.142;7.768;2023-01-01T02:58:23;10.93;;;4.53;;
5867;SDS011;2960;49.142;7.768;2023-01-01T03:01:20;10.67;;;4.20;;
5867;SDS011;2960;49.142;7.768;2023-01-01T03:03:58;12.90;;;4.60;;
5867;SDS011;2960;49.142;7.768;2023-01-01T03:06:35;10.63;;;4.30;;
5867;SDS011;2960;49.142;7.768;2023-01-01T03:09:10;10.27;;;4.47;;
5867;SDS011;2960;49.142;7.768;2023-01-01T03:11:47;10.67;;;4.57;;
5867;SDS011;2960;49.142;7.768;2023-01-01T03:14:23;11.37;;;4.40;;
5867;SDS011;2960;49.142;7.768;2023-01-01T03:16:58;10.67;;;4.43;;
5867;SDS011;2960;49.142;7.768;2023-01-01T03:19:33;11.57;;;4.40;;
5867;SDS011;2960;49.142;7.768;2023-01-01T03:22:05;10.80;;;4.43;;
5867;SDS011;2960;49.142;7.768;2023-01-01T03:24:35;10.70;;;4.50;;
5867;SDS011;2960;49.142;7.768;2023-01-01T03:27:07;11.00;;;4.53;;
5867;SDS011;2960;49.142;7.768;2023-01-01T03:29:39;10.53;;;4.40;;
5867;SDS011;2960;49.142;7.768;2023-01-01T03:32:10;10.43;;;4.40;;
5867;SDS011;2960;49.142;7.768;2023-01-01T03:34:44;11.40;;;4.53;;
5867;SDS011;2960;49.142;7.768;2023-01-01T03:37:16;12.50;;;4.70;;
5867;SDS011;2960;49.142;7.768;2023-01-01T03:39:50;10.83;;;4.63;;
5867;SDS011;2960;49.142;7.768;2023-01-01T03:42:21;13.93;;;4.70;;
5867;SDS011;2960;49.142;7.768;2023-01-01T03:44:57;15.17;;;4.97;;
5867;SDS011;2960;49.142;7.768;2023-01-01T03:47:30;10.57;;;4.60;;
5867;SDS011;2960;49.142;7.768;2023-01-01T03:49:58;13.03;;;4.90;;
5867;SDS011;2960;49.142;7.768;2023-01-01T03:52:29;11.27;;;4.80;;
5867;SDS011;2960;49.142;7.768;2023-01-01T03:55:07;10.87;;;4.70;;
5867;SDS011;2960;49.142;7.768;2023-01-01T03:57:42;11.30;;;5.10;;
5867;SDS011;2960;49.142;7.768;2023-01-01T04:00:16;10.90;;;5.33;;
5867;SDS011;2960;49.142;7.768;2023-01-01T04:02:48;12.10;;;5.17;;
5867;SDS011;2960;49.142;7.768;2023-01-01T04:05:21;10.60;;;4.80;;
5867;SDS011;2960;49.142;7.768;2023-01-01T04:07:49;11.10;;;5.23;;
5867;SDS011;2960;49.142;7.768;2023-01-01T04:10:18;13.83;;;5.10;;
5867;SDS011;2960;49.142;7.768;2023-01-01T04:12:45;11.20;;;5.17;;
5867;SDS011;2960;49.142;7.768;2023-01-01T04:15:14;10.70;;;4.70;;
5867;SDS011;2960;49.142;7.768;2023-01-01T04:17:42;10.50;;;4.40;;
5867;SDS011;2960;49.142;7.768;2023-01-01T04:20:11;10.43;;;4.60;;
5867;SDS011;2960;49.142;7.768;2023-01-01T04:22:39;10.70;;;4.60;;
5867;SDS011;2960;49.142;7.768;2023-01-01T04:25:07;13.37;;;4.70;;
5867;SDS011;2960;49.142;7.768;2023-01-01T04:27:35;11.00;;;4.80;;
5867;SDS011;2960;49.142;7.768;2023-01-01T04:30:05;10.80;;;4.60;;
5867;SDS011;2960;49.142;7.768;2023-01-01T04:32:34;11.10;;;4.90;;
5867;SDS011;2960;49.142;7.768;2023-01-01T04:35:02;10.23;;;4.40;;
5867;SDS011;2960;49.142;7.768;2023-01-01T04:37:31;11.20;;;4.87;;
5867;SDS011;2960;49.142;7.768;2023-01-01T04:40:00;10.30;;;4.60;;
5867;SDS011;2960;49.142;7.768;2023-01-01T04:42:28;11.30;;;5.20;;
5867;SDS011;2960;49.142;7.768;2023-01-01T04:44:55;10.60;;;4.53;;
5867;SDS011;2960;49.142;7.768;2023-01-01T04:47:22;12.10;;;4.70;;
5867;SDS011;2960;49.142;7.768;2023-01-01T04:49:50;10.37;;;4.60;;
5867;SDS011;2960;49.142;7.768;2023-01-01T04:52:18;10.73;;;4.33;;
5867;SDS011;2960;49.142;7.768;2023-01-01T04:54:47;11.13;;;4.43;;
5867;SDS011;2960;49.142;7.768;2023-01-01T04:57:14;13.83;;;4.90;;
5867;SDS011;2960;49.142;7.768;2023-01-01T04:59:41;13.37;;;5.20;;
5867;SDS011;2960;49.142;7.768;2023-01-01T05:02:08;11.83;;;4.80;;
5867;SDS011;2960;49.142;7.768;2023-01-01T05:04:35;12.73;;;4.60;;
5867;SDS011;2960;49.142;7.768;2023-01-01T05:07:02;10.97;;;4.43;;
5867;SDS011;2960;49.142;7.768;2023-01-01T05:09:29;13.20;;;4.77;;
5867;SDS011;2960;49.142;7.768;2023-01-01T05:11:58;10.90;;;4.50;;
5867;SDS011;2960;49.142;7.768;2023-01-01T05:14:25;15.03;;;4.93;;
5867;SDS011;2960;49.142;7.768;2023-01-01T05:16:52;10.50;;;4.50;;
5867;SDS011;2960;49.142;7.768;2023-01-01T05:19:19;11.00;;;4.77;;
5867;SDS011;2960;49.142;7.768;2023-01-01T05:21:46;12.57;;;4.83;;
5867;SDS011;2960;49.142;7.768;2023-01-01T05:24:14;10.67;;;4.60;;
5867;SDS011;2960;49.142;7.768;2023-01-01T05:26:42;10.60;;;4.50;;
5867;SDS011;2960;49.142;7.768;2023-01-01T05:29:11;10.67;;;4.87;;
5867;SDS011;2960;49.142;7.768;2023-01-01T05:31:38;10.63;;;4.63;;
5867;SDS011;2960;49.142;7.768;2023-01-01T05:34:05;11.00;;;5.00;;
5867;SDS011;2960;49.142;7.768;2023-01-01T05:36:33;10.37;;;4.70;;
5867;SDS011;2960;49.142;7.768;2023-01-01T05:39:02;11.50;;;4.80;;
5867;SDS011;2960;49.142;7.768;2023-01-01T05:41:30;11.00;;;4.60;;
5867;SDS011;2960;49.142;7.768;2023-01-01T05:44:00;10.20;;;4.40;;
5867;SDS011;2960;49.142;7.768;2023-01-01T05:46:30;12.20;;;4.90;;
5867;SDS011;2960;49.142;7.768;2023-01-01T05:48:57;10.60;;;4.60;;
5867;SDS011;2960;49.142;7.768;2023-01-01T05:51:25;10.50;;;4.57;;
5867;SDS011;2960;49.142;7.768;2023-01-01T05:53:55;13.23;;;4.50;;
5867;SDS011;2960;49.142;7.768;2023-01-01T05:56:23;10.80;;;4.67;;
5867;SDS011;2960;49.142;7.768;2023-01-01T05:58:51;11.40;;;5.03;;
5867;SDS011;2960;49.142;7.768;2023-01-01T06:01:19;10.93;;;4.50;;
5867;SDS011;2960;49.142;7.768;2023-01-01T06:03:49;10.70;;;4.83;;
5867;SDS011;2960;49.142;7.768;2023-01-01T06:06:18;10.20;;;4.40;;
5867;SDS011;2960;49.142;7.768;2023-01-01T06:08:48;10.60;;;4.60;;
5867;SDS011;2960;49.142;7.768;2023-01-01T06:11:15;10.90;;;4.70;;
5867;SDS011;2960;49.142;7.768;2023-01-01T06:13:43;10.70;;;4.47;;
5867;SDS011;2960;49.142;7.768;2023-01-01T06:16:10;10.80;;;4.70;;
5867;SDS011;2960;49.142;7.768;2023-01-01T06:18:38;10.70;;;5.00;;
5867;SDS011;2960;49.142;7.768;2023-01-01T06:21:07;10.27;;;4.40;;
5867;SDS011;2960;49.142;7.768;2023-01-01T06:23:36;10.33;;;4.30;;
5867;SDS011;2960;49.142;7.768;2023-01-01T06:26:05;10.77;;;4.50;;
5867;SDS011;2960;49.142;7.768;2023-01-01T06:28:33;11.00;;;4.53;;
5867;SDS011;2960;49.142;7.768;2023-01-01T06:31:00;10.80;;;4.50;;
5867;SDS011;2960;49.142;7.768;2023-01-01T06:33:28;11.10;;;4.63;;
5867;SDS011;2960;49.142;7.768;2023-01-01T06:35:56;10.90;;;4.70;;
5867;SDS011;2960;49.142;7.768;2023-01-01T06:38:28;10.30;;;4.53;;
5867;SDS011;2960;49.142;7.768;2023-01-01T06:40:57;11.30;;;4.30;;
5867;SDS011;2960;49.142;7.768;2023-01-01T06:43:25;10.80;;;4.30;;
5867;SDS011;2960;49.142;7.768;2023-01-01T06:45:58;13.40;;;4.70;;
5867;SDS011;2960;49.142;7.768;2023-01-01T06:48:28;10.50;;;4.40;;
5867;SDS011;2960;49.142;7.768;2023-01-01T06:50:56;11.20;;;4.60;;
5867;SDS011;2960;49.142;7.768;2023-01-01T06:53:24;12.10;;;4.43;;
5867;SDS011;2960;49.142;7.768;2023-01-01T06:55:53;11.20;;;4.53;;
5867;SDS011;2960;49.142;7.768;2023-01-01T06:58:20;13.53;;;4.53;;
5867;SDS011;2960;49.142;7.768;2023-01-01T07:00:47;11.13;;;4.77;;
5867;SDS011;2960;49.142;7.768;2023-01-01T07:03:14;10.90;;;4.40;;
5867;SDS011;2960;49.142;7.768;2023-01-01T07:05:42;11.90;;;4.63;;
5867;SDS011;2960;49.142;7.768;2023-01-01T07:08:11;11.20;;;4.50;;
5867;SDS011;2960;49.142;7.768;2023-01-01T07:10:38;10.70;;;4.40;;
5867;SDS011;2960;49.142;7.768;2023-01-01T07:13:06;11.40;;;4.40;;
5867;SDS011;2960;49.142;7.768;2023-01-01T07:15:33;11.57;;;4.30;;
5867;SDS011;2960;49.142;7.768;2023-01-01T07:18:01;11.30;;;4.70;;
5867;SDS011;2960;49.142;7.768;2023-01-01T07:20:28;11.67;;;4.80;;
5867;SDS011;2960;49.142;7.768;2023-01-01T07:22:55;10.40;;;4.50;;
5867;SDS011;2960;49.142;7.768;2023-01-01T07:25:26;10.47;;;4.50;;
5867;SDS011;2960;49.142;7.768;2023-01-01T07:27:53;11.63;;;4.47;;
5867;SDS011;2960;49.142;7.768;2023-01-01T07:30:22;11.33;;;5.00;;
5867;SDS011;2960;49.142;7.768;2023-01-01T07:32:52;12.97;;;4.80;;
5867;SDS011;2960;49.142;7.768;2023-01-01T07:35:20;10.43;;;4.00;;
5867;SDS011;2960;49.142;7.768;2023-01-01T07:37:47;10.80;;;4.33;;
5867;SDS011;2960;49.142;7.768;2023-01-01T07:40:14;10.70;;;4.43;;
5867;SDS011;2960;49.142;7.768;2023-01-01T07:42:41;11.50;;;4.17;;
5867;SDS011;2960;49.142;7.768;2023-01-01T07:45:09;12.43;;;4.70;;
5867;SDS011;2960;49.142;7.768;2023-01-01T07:47:39;11.30;;;3.80;;
5867;SDS011;2960;49.142;7.768;2023-01-01T07:50:09;12.43;;;4.10;;
5867;SDS011;2960;49.142;7.768;2023-01-01T07:52:42;11.37;;;4.53;;
5867;SDS011;2960;49.142;7.768;2023-01-01T07:55:10;13.10;;;4.53;;
5867;SDS011;2960;49.142;7.768;2023-01-01T07:57:39;10.87;;;4.20;;
5867;SDS011;2960;49.142;7.768;2023-01-01T08:00:07;11.27;;;4.30;;
5867;SDS011;2960;49.142;7.768;2023-01-01T08:02:36;10.53;;;4.10;;
5867;SDS011;2960;49.142;7.768;2023-01-01T08:05:05;10.73;;;4.00;;
5867;SDS011;2960;49.142;7.768;2023-01-01T08:07:34;12.50;;;3.80;;
5867;SDS011;2960;49.142;7.768;2023-01-01T08:10:01;14.00;;;4.10;;
5867;SDS011;2960;49.142;7.768;2023-01-01T08:12:29;11.50;;;4.20;;
5867;SDS011;2960;49.142;7.768;2023-01-01T08:14:56;11.77;;;4.00;;
5867;SDS011;2960;49.142;7.768;2023-01-01T08:17:26;11.20;;;4.00;;
5867;SDS011;2960;49.142;7.768;2023-01-01T08:19:55;10.23;;;3.80;;
5867;SDS011;2960;49.142;7.768;2023-01-01T08:22:22;12.03;;;3.80;;
5867;SDS011;2960;49.142;7.768;2023-01-01T08:24:49;12.33;;;4.10;;
5867;SDS011;2960;49.142;7.768;2023-01-01T08:27:16;10.60;;;3.67;;
5867;SDS011;2960;49.142;7.768;2023-01-01T08:29:43;10.93;;;4.00;;
5867;SDS011;2960;49.142;7.768;2023-01-01T08:32:11;11.60;;;4.00;;
5867;SDS011;2960;49.142;7.768;2023-01-01T08:34:38;12.97;;;4.27;;
5867;SDS011;2960;49.142;7.768;2023-01-01T08:37:08;10.10;;;3.90;;
5867;SDS011;2960;49.142;7.768;2023-01-01T08:39:38;11.07;;;3.77;;
5867;SDS011;2960;49.142;7.768;2023-01-01T08:42:05;10.30;;;3.67;;
5867;SDS011;2960;49.142;7.768;2023-01-01T08:44:33;12.20;;;4.10;;
5867;SDS011;2960;49.142;7.768;2023-01-01T08:47:00;10.70;;;3.87;;
5867;SDS011;2960;49.142;7.768;2023-01-01T08:49:28;11.10;;;4.50;;
5867;SDS011;2960;49.142;7.768;2023-01-01T08:51:55;13.53;;;4.47;;
5867;SDS011;2960;49.142;7.768;2023-01-01T08:54:24;14.80;;;4.40;;
5867;SDS011;2960;49.142;7.768;2023-01-01T08:56:51;10.90;;;4.20;;
5867;SDS011;2960;49.142;7.768;2023-01-01T08:59:18;10.63;;;3.93;;
5867;SDS011;2960;49.142;7.768;2023-01-01T09:01:45;11.83;;;4.43;;
5867;SDS011;2960;49.142;7.768;2023-01-01T09:04:12;10.53;;;4.43;;
5867;SDS011;2960;49.142;7.768;2023-01-01T09:06:41;10.40;;;4.20;;
5867;SDS011;2960;49.142;7.768;2023-01-01T09:09:08;11.70;;;4.77;;
5867;SDS011;2960;49.142;7.768;2023-01-01T09:11:36;11.90;;;5.17;;
5867;SDS011;2960;49.142;7.768;2023-01-01T09:14:04;14.07;;;4.70;;
5867;SDS011;2960;49.142;7.768;2023-01-01T09:16:31;12.37;;;4.70;;
5867;SDS011;2960;49.142;7.768;2023-01-01T09:18:58;12.70;;;4.70;;
5867;SDS011;2960;49.142;7.768;2023-01-01T09:21:25;13.37;;;5.00;;
5867;SDS011;2960;49.142;7.768;2023-01-01T09:23:52;14.57;;;4.90;;
5867;SDS011;2960;49.142;7.768;2023-01-01T09:26:19;12.70;;;5.43;;
5867;SDS011;2960;49.142;7.768;2023-01-01T09:28:47;11.30;;;4.50;;
5867;SDS011;2960;49.142;7.768;2023-01-01T09:31:15;12.97;;;5.27;;
5867;SDS011;2960;49.142;7.768;2023-01-01T09:33:42;12.47;;;5.10;;
5867;SDS011;2960;49.142;7.768;2023-01-01T09:36:12;13.90;;;4.73;;
5867;SDS011;2960;49.142;7.768;2023-01-01T09:38:51;11.90;;;5.30;;
5867;SDS011;2960;49.142;7.768;2023-01-01T09:41:21;12.30;;;5.07;;
5867;SDS011;2960;49.142;7.768;2023-01-01T09:44:00;13.10;;;5.10;;
5867;SDS011;2960;49.142;7.768;2023-01-01T09:46:35;11.83;;;5.43;;
5867;SDS011;2960;49.142;7.768;2023-01-01T09:49:04;14.23;;;5.37;;
5867;SDS011;2960;49.142;7.768;2023-01-01T09:51:38;11.60;;;5.50;;
5867;SDS011;2960;49.142;7.768;2023-01-01T09:54:09;12.47;;;5.40;;
5867;SDS011;2960;49.142;7.768;2023-01-01T09:56:43;11.53;;;5.20;;
5867;SDS011;2960;49.142;7.768;2023-01-01T09:59:12;12.27;;;5.20;;
5867;SDS011;2960;49.142;7.768;2023-01-01T10:01:41;13.10;;;5.37;;
5867;SDS011;2960;49.142;7.768;2023-01-01T10:04:23;13.10;;;5.30;;
5867;SDS011;2960;49.142;7.768;2023-01-01T10:07:06;11.63;;;5.27;;
5867;SDS011;2960;49.142;7.768;2023-01-01T10:09:45;14.70;;;5.60;;
5867;SDS011;2960;49.142;7.768;2023-01-01T10:12:24;12.10;;;5.17;;
5867;SDS011;2960;49.142;7.768;2023-01-01T10:15:02;13.33;;;5.40;;
5867;SDS011;2960;49.142;7.768;2023-01-01T10:17:39;12.10;;;5.60;;
5867;SDS011;2960;49.142;7.768;2023-01-01T10:20:14;13.73;;;5.20;;
5867;SDS011;2960;49.142;7.768;2023-01-01T10:22:48;12.60;;;5.47;;
5867;SDS011;2960;49.142;7.768;2023-01-01T10:25:20;13.07;;;5.37;;
5867;SDS011;2960;49.142;7.768;2023-01-01T10:27:51;12.90;;;5.97;;
5867;SDS011;2960;49.142;7.768;2023-01-01T10:30:25;13.00;;;5.47;;
5867;SDS011;2960;49.142;7.768;2023-01-01T10:32:54;11.73;;;5.33;;
5867;SDS011;2960;49.142;7.768;2023-01-01T10:35:23;11.97;;;5.10;;
5867;SDS011;2960;49.142;7.768;2023-01-01T10:37:56;12.50;;;6.10;;
5867;SDS011;2960;49.142;7.768;2023-01-01T10:40:25;11.40;;;4.73;;
5867;SDS011;2960;49.142;7.768;2023-01-01T10:42:54;12.07;;;5.37;;
5867;SDS011;2960;49.142;7.768;2023-01-01T10:45:28;13.50;;;4.60;;
5867;SDS011;2960;49.142;7.768;2023-01-01T10:48:16;11.30;;;4.93;;
5867;SDS011;2960;49.142;7.768;2023-01-01T10:50:47;11.30;;;4.77;;
5867;SDS011;2960;49.142;7.768;2023-01-01T10:53:21;12.40;;;4.53;;
5867;SDS011;2960;49.142;7.768;2023-01-01T10:56:02;11.47;;;4.20;;
5867;SDS011;2960;49.142;7.768;2023-01-01T10:58:33;11.67;;;4.83;;
5867;SDS011;2960;49.142;7.768;2023-01-01T11:01:06;11.30;;;4.83;;
5867;SDS011;2960;49.142;7.768;2023-01-01T11:03:34;12.47;;;5.07;;
5867;SDS011;2960;49.142;7.768;2023-01-01T11:06:03;11.20;;;4.90;;
5867;SDS011;2960;49.142;7.768;2023-01-01T11:08:40;11.00;;;4.60;;
5867;SDS011;2960;49.142;7.768;2023-01-01T11:11:18;12.33;;;5.20;;
5867;SDS011;2960;49.142;7.768;2023-01-01T11:13:48;11.73;;;4.63;;
5867;SDS011;2960;49.142;7.768;2023-01-01T11:16:19;11.30;;;4.40;;
5867;SDS011;2960;49.142;7.768;2023-01-01T11:18:46;12.50;;;4.40;;
5867;SDS011;2960;49.142;7.768;2023-01-01T11:21:18;11.30;;;4.40;;
5867;SDS011;2960;49.142;7.768;2023-01-01T11:23:48;12.90;;;4.57;;
5867;SDS011;2960;49.142;7.768;2023-01-01T11:26:35;11.30;;;4.20;;
5867;SDS011;2960;49.142;7.768;2023-01-01T11:29:02;11.87;;;4.27;;
5867;SDS011;2960;49.142;7.768;2023-01-01T11:31:47;14.87;;;4.37;;
5867;SDS011;2960;49.142;7.768;2023-01-01T11:34:22;10.73;;;4.20;;
5867;SDS011;2960;49.142;7.768;2023-01-01T11:37:07;11.07;;;4.30;;
5867;SDS011;2960;49.142;7.768;2023-01-01T11:39:40;12.73;;;4.57;;
5867;SDS011;2960;49.142;7.768;2023-01-01T11:42:15;14.33;;;4.53;;
5867;SDS011;2960;49.142;7.768;2023-01-01T11:44:44;11.73;;;4.60;;
5867;SDS011;2960;49.142;7.768;2023-01-01T11:47:20;10.53;;;4.03;;
5867;SDS011;2960;49.142;7.768;2023-01-01T11:49:53;11.30;;;4.10;;
5867;SDS011;2960;49.142;7.768;2023-01-01T11:55:12;11.20;;;4.27;;
5867;SDS011;2960;49.142;7.768;2023-01-01T11:57:49;10.70;;;4.03;;
5867;SDS011;2960;49.142;7.768;2023-01-01T12:00:24;10.90;;;4.30;;
5867;SDS011;2960;49.142;7.768;2023-01-01T12:02:57;11.20;;;4.40;;
5867;SDS011;2960;49.142;7.768;2023-01-01T12:05:33;11.13;;;4.27;;
5867;SDS011;2960;49.142;7.768;2023-01-01T12:08:11;10.70;;;4.23;;
5867;SDS011;2960;49.142;7.768;2023-01-01T12:10:43;14.23;;;4.03;;
5867;SDS011;2960;49.142;7.768;2023-01-01T12:13:17;12.70;;;4.40;;
5867;SDS011;2960;49.142;7.768;2023-01-01T12:15:50;12.20;;;4.20;;
5867;SDS011;2960;49.142;7.768;2023-01-01T12:18:27;12.30;;;4.53;;
5867;SDS011;2960;49.142;7.768;2023-01-01T12:21:02;10.83;;;4.83;;
5867;SDS011;2960;49.142;7.768;2023-01-01T12:23:33;11.50;;;4.37;;
5867;SDS011;2960;49.142;7.768;2023-01-01T12:26:03;12.47;;;4.20;;
5867;SDS011;2960;49.142;7.768;2023-01-01T12:28:42;11.27;;;4.87;;
5867;SDS011;2960;49.142;7.768;2023-01-01T12:31:46;10.87;;;4.53;;
5867;SDS011;2960;49.142;7.768;2023-01-01T12:34:24;11.00;;;4.60;;
5867;SDS011;2960;49.142;7.768;2023-01-01T12:36:58;11.97;;;5.10;;
5867;SDS011;2960;49.142;7.768;2023-01-01T12:43:02;11.70;;;4.60;;
5867;SDS011;2960;49.142;7.768;2023-01-01T12:48:41;10.50;;;4.60;;
5867;SDS011;2960;49.142;7.768;2023-01-01T12:51:34;10.70;;;4.70;;
5867;SDS011;2960;49.142;7.768;2023-01-01T12:57:21;11.10;;;4.43;;
5867;SDS011;2960;49.142;7.768;2023-01-01T12:59:55;10.77;;;4.37;;
5867;SDS011;2960;49.142;7.768;2023-01-01T13:02:26;12.53;;;4.60;;
5867;SDS011;2960;49.142;7.768;2023-01-01T13:04:57;10.70;;;4.43;;
5867;SDS011;2960;49.142;7.768;2023-01-01T13:07:35;10.57;;;4.30;;
5867;SDS011;2960;49.142;7.768;2023-01-01T13:10:07;10.43;;;4.47;;
5867;SDS011;2960;49.142;7.768;2023-01-01T13:12:45;12.07;;;4.80;;
5867;SDS011;2960;49.142;7.768;2023-01-01T13:18:22;11.03;;;4.40;;
5867;SDS011;2960;49.142;7.768;2023-01-01T13:20:56;11.17;;;4.67;;
5867;SDS011;2960;49.142;7.768;2023-01-01T13:23:41;10.80;;;4.50;;
5867;SDS011;2960;49.142;7.768;2023-01-01T13:26:29;11.47;;;4.60;;
5867;SDS011;2960;49.142;7.768;2023-01-01T13:32:12;10.67;;;4.63;;
5867;SDS011;2960;49.142;7.768;2023-01-01T13:37:43;10.60;;;4.43;;
5867;SDS011;2960;49.142;7.768;2023-01-01T13:43:24;13.53;;;4.43;;
5867;SDS011;2960;49.142;7.768;2023-01-01T13:45:54;10.23;;;4.20;;
5867;SDS011;2960;49.142;7.768;2023-01-01T13:48:27;10.70;;;4.57;;
5867;SDS011;2960;49.142;7.768;2023-01-01T13:51:23;13.33;;;4.33;;
5867;SDS011;2960;49.142;7.768;2023-01-01T13:54:21;10.57;;;4.50;;
5867;SDS011;2960;49.142;7.768;2023-01-01T13:57:18;11.33;;;4.40;;
5867;SDS011;2960;49.142;7.768;2023-01-01T14:00:15;11.70;;;5.00;;
5867;SDS011;2960;49.142;7.768;2023-01-01T14:02:47;11.03;;;4.50;;
5867;SDS011;2960;49.142;7.768;2023-01-01T14:05:24;11.20;;;4.80;;
5867;SDS011;2960;49.142;7.768;2023-01-01T14:07:57;10.47;;;4.60;;
5867;SDS011;2960;49.142;7.768;2023-01-01T14:10:26;10.90;;;4.50;;
5867;SDS011;2960;49.142;7.768;2023-01-01T14:12:59;11.00;;;4.30;;
5867;SDS011;2960;49.142;7.768;2023-01-01T14:15:43;11.00;;;4.67;;
5867;SDS011;2960;49.142;7.768;2023-01-01T14:18:18;11.10;;;4.30;;
5867;SDS011;2960;49.142;7.768;2023-01-01T14:20:51;11.03;;;4.47;;
5867;SDS011;2960;49.142;7.768;2023-01-01T14:23:19;10.60;;;4.47;;
5867;SDS011;2960;49.142;7.768;2023-01-01T14:25:55;10.60;;;4.63;;
5867;SDS011;2960;49.142;7.768;2023-01-01T14:28:25;12.00;;;4.57;;
5867;SDS011;2960;49.142;7.768;2023-01-01T14:30:54;11.80;;;4.33;;
5867;SDS011;2960;49.142;7.768;2023-01-01T14:33:24;11.00;;;4.60;;
5867;SDS011;2960;49.142;7.768;2023-01-01T14:35:56;10.33;;;4.10;;
5867;SDS011;2960;49.142;7.768;2023-01-01T14:38:25;11.10;;;4.70;;
5867;SDS011;2960;49.142;7.768;2023-01-01T14:41:04;10.30;;;4.13;;
5867;SDS011;2960;49.142;7.768;2023-01-01T14:43:37;12.00;;;4.53;;
5867;SDS011;2960;49.142;7.768;2023-01-01T14:46:05;11.23;;;4.33;;
5867;SDS011;2960;49.142;7.768;2023-01-01T14:48:33;11.10;;;4.40;;
5867;SDS011;2960;49.142;7.768;2023-01-01T14:51:00;11.73;;;4.73;;
5867;SDS011;2960;49.142;7.768;2023-01-01T14:53:29;11.47;;;4.83;;
5867;SDS011;2960;49.142;7.768;2023-01-01T14:55:58;10.97;;;4.60;;
5867;SDS011;2960;49.142;7.768;2023-01-01T14:58:27;10.90;;;4.60;;
5867;SDS011;2960;49.142;7.768;2023-01-01T15:03:53;11.67;;;4.70;;
5867;SDS011;2960;49.142;7.768;2023-01-01T15:06:24;11.40;;;4.47;;
5867;SDS011;2960;49.142;7.768;2023-01-01T15:08:51;11.17;;;4.33;;
5867;SDS011;2960;49.142;7.768;2023-01-01T15:11:19;10.90;;;4.13;;
5867;SDS011;2960;49.142;7.768;2023-01-01T15:13:54;10.97;;;4.37;;
5867;SDS011;2960;49.142;7.768;2023-01-01T15:16:25;10.60;;;4.23;;
5867;SDS011;2960;49.142;7.768;2023-01-01T15:18:54;11.30;;;4.13;;
5867;SDS011;2960;49.142;7.768;2023-01-01T15:24:09;11.70;;;4.40;;
5867;SDS011;2960;49.142;7.768;2023-01-01T15:26:40;10.83;;;4.10;;
5867;SDS011;2960;49.142;7.768;2023-01-01T15:29:10;10.67;;;3.73;;
5867;SDS011;2960;49.142;7.768;2023-01-01T15:31:43;11.17;;;3.90;;
5867;SDS011;2960;49.142;7.768;2023-01-01T15:34:19;10.77;;;3.73;;
5867;SDS011;2960;49.142;7.768;2023-01-01T15:36:50;10.93;;;3.57;;
5867;SDS011;2960;49.142;7.768;2023-01-01T15:39:19;11.07;;;4.00;;
5867;SDS011;2960;49.142;7.768;2023-01-01T15:41:47;12.50;;;3.90;;
5867;SDS011;2960;49.142;7.768;2023-01-01T15:44:16;11.27;;;3.90;;
5867;SDS011;2960;49.142;7.768;2023-01-01T15:46:48;11.10;;;3.90;;
5867;SDS011;2960;49.142;7.768;2023-01-01T15:49:21;11.40;;;4.10;;
5867;SDS011;2960;49.142;7.768;2023-01-01T15:51:51;14.80;;;4.20;;
5867;SDS011;2960;49.142;7.768;2023-01-01T15:54:21;11.83;;;4.40;;